createdAt,value
2018-09-03T00:00:57.059Z,3.23
2018-09-03T00:03:25.373Z,3.50
2018-09-03T00:05:53.695Z,3.40
2018-09-03T00:08:22.029Z,4.03
2018-09-03T00:10:50.348Z,3.77
2018-09-03T00:13:18.685Z,3.87
2018-09-03T00:15:46.987Z,4.40
2018-09-03T00:18:15.338Z,3.80
2018-09-03T00:20:43.839Z,4.10
2018-09-03T00:23:12.157Z,4.53
2018-09-03T00:25:40.489Z,5.27
2018-09-03T00:28:08.811Z,4.20
2018-09-03T00:30:37.108Z,3.97
2018-09-03T00:33:10.860Z,4.17
2018-09-03T00:35:44.668Z,3.50
2018-09-03T00:38:18.513Z,3.20
2018-09-03T00:40:52.272Z,3.50
2018-09-03T00:43:25.999Z,3.50
2018-09-03T00:45:59.708Z,3.90
2018-09-03T00:48:28.037Z,3.87
2018-09-03T00:50:56.341Z,3.43
2018-09-03T00:53:24.664Z,3.90
2018-09-03T00:55:52.983Z,3.87
2018-09-03T00:58:21.337Z,3.33
2018-09-03T01:00:49.648Z,2.90
2018-09-03T01:03:17.965Z,3.07
2018-09-03T01:05:46.260Z,3.17
2018-09-03T01:08:14.604Z,3.00
2018-09-03T01:10:42.918Z,3.13
2018-09-03T01:13:11.254Z,2.53
2018-09-03T01:15:39.568Z,2.73
2018-09-03T01:18:07.926Z,2.90
2018-09-03T01:20:36.224Z,2.60
2018-09-03T01:23:04.569Z,3.13
2018-09-03T01:25:32.882Z,2.57
2018-09-03T01:28:01.209Z,2.40
2018-09-03T01:30:29.540Z,2.47
2018-09-03T01:32:57.857Z,3.00
2018-09-03T01:35:26.190Z,2.70
2018-09-03T01:37:54.499Z,3.07
2018-09-03T01:40:22.883Z,2.60
2018-09-03T01:42:51.217Z,2.80
2018-09-03T01:45:19.548Z,3.13
2018-09-03T01:47:47.889Z,2.80
2018-09-03T01:50:16.258Z,2.93
2018-09-03T01:52:44.576Z,3.50
2018-09-03T01:55:12.913Z,3.70
2018-09-03T01:57:41.212Z,3.67
2018-09-03T02:00:09.592Z,3.03
2018-09-03T02:02:37.905Z,3.60
2018-09-03T02:05:06.317Z,3.40
2018-09-03T02:07:34.884Z,3.33
2018-09-03T02:10:03.269Z,3.10
2018-09-03T02:12:31.565Z,3.47
2018-09-03T02:14:59.900Z,3.27
2018-09-03T02:17:28.257Z,3.50
2018-09-03T02:19:56.596Z,3.40
2018-09-03T02:22:24.910Z,3.87
2018-09-03T02:24:53.244Z,3.50
2018-09-03T02:27:21.554Z,3.53
2018-09-03T02:29:49.888Z,3.37
2018-09-03T02:32:18.196Z,3.37
2018-09-03T02:34:46.545Z,3.40
2018-09-03T02:37:14.861Z,3.77
2018-09-03T02:39:43.197Z,3.80
2018-09-03T02:42:11.492Z,3.93
2018-09-03T02:44:39.833Z,4.13
2018-09-03T02:47:08.149Z,4.40
2018-09-03T02:49:36.469Z,3.73
2018-09-03T02:52:04.772Z,3.50
2018-09-03T02:54:33.096Z,3.50
2018-09-03T02:57:01.394Z,3.27
2018-09-03T02:59:29.708Z,3.50
2018-09-03T03:01:58.004Z,3.50
2018-09-03T03:04:26.349Z,3.93
2018-09-03T03:06:54.664Z,3.90
2018-09-03T03:09:23.004Z,3.53
2018-09-03T03:11:51.407Z,3.43
2018-09-03T03:14:19.668Z,3.57
2018-09-03T03:16:48.010Z,3.77
2018-09-03T03:19:16.357Z,3.67
2018-09-03T03:21:44.673Z,3.63
2018-09-03T03:24:13.004Z,3.63
2018-09-03T03:26:41.341Z,3.63
2018-09-03T03:29:09.865Z,3.90
2018-09-03T03:31:38.256Z,3.67
2018-09-03T03:34:06.558Z,3.70
2018-09-03T03:36:34.901Z,3.73
2018-09-03T03:39:04.304Z,3.63
2018-09-03T03:41:32.658Z,3.93
2018-09-03T03:44:00.957Z,4.10
2018-09-03T03:46:29.292Z,3.93
2018-09-03T03:48:57.585Z,5.70
2018-09-03T03:51:25.942Z,4.63
2018-09-03T03:53:54.234Z,4.93
2018-09-03T03:56:22.548Z,4.00
2018-09-03T03:58:50.873Z,3.60
2018-09-03T04:01:19.278Z,3.60
2018-09-03T04:03:47.541Z,3.67
2018-09-03T04:06:15.872Z,4.10
2018-09-03T04:08:44.172Z,3.90
2018-09-03T04:11:12.495Z,4.33
2018-09-03T04:13:40.799Z,3.93
2018-09-03T04:16:09.124Z,4.50
2018-09-03T04:18:37.439Z,3.83
2018-09-03T04:21:05.828Z,4.17
2018-09-03T04:23:34.120Z,4.57
2018-09-03T04:26:02.437Z,5.13
2018-09-03T04:28:30.748Z,4.57
2018-09-03T04:30:59.077Z,5.17
2018-09-03T04:33:27.400Z,5.03
2018-09-03T04:35:55.888Z,5.00
2018-09-03T04:38:24.197Z,5.10
2018-09-03T04:40:52.696Z,5.10
2018-09-03T04:43:21.024Z,5.37
2018-09-03T04:45:49.382Z,4.70
2018-09-03T04:48:17.715Z,4.70
2018-09-03T04:50:46.048Z,5.40
2018-09-03T04:53:14.371Z,5.00
2018-09-03T04:55:42.692Z,4.57
2018-09-03T04:58:10.994Z,5.07
2018-09-03T05:00:39.329Z,4.63
2018-09-03T05:03:07.645Z,4.90
2018-09-03T05:05:36.004Z,4.57
2018-09-03T05:08:04.325Z,5.20
2018-09-03T05:10:32.685Z,4.60
2018-09-03T05:13:00.991Z,4.80
2018-09-03T05:15:29.300Z,4.50
2018-09-03T05:17:57.732Z,4.33
2018-09-03T05:20:26.073Z,3.93
2018-09-03T05:22:54.536Z,4.40
2018-09-03T05:25:22.837Z,4.43
2018-09-03T05:27:51.188Z,5.20
2018-09-03T05:30:19.500Z,4.50
2018-09-03T05:32:47.885Z,4.37
2018-09-03T05:35:16.184Z,4.60
2018-09-03T05:37:44.495Z,4.70
2018-09-03T05:40:12.817Z,4.70
2018-09-03T05:42:41.164Z,5.70
2018-09-03T05:45:09.494Z,5.13
2018-09-03T05:47:37.855Z,5.50
2018-09-03T05:50:06.478Z,4.90
2018-09-03T05:52:34.789Z,4.63
2018-09-03T05:55:03.133Z,4.83
2018-09-03T05:57:31.465Z,5.43
2018-09-03T05:59:59.781Z,5.13
2018-09-03T06:02:28.166Z,5.07
2018-09-03T06:04:56.514Z,5.17
2018-09-03T06:07:24.861Z,5.53
2018-09-03T06:09:53.157Z,5.10
2018-09-03T06:12:21.511Z,6.20
2018-09-03T06:14:49.807Z,4.73
2018-09-03T06:17:18.193Z,5.53
2018-09-03T06:19:46.513Z,5.40
2018-09-03T06:22:14.845Z,5.67
2018-09-03T06:24:43.170Z,4.43
2018-09-03T06:27:11.811Z,2.73
2018-09-03T06:29:40.132Z,4.77
2018-09-03T06:32:08.452Z,5.70
2018-09-03T06:34:36.775Z,6.17
2018-09-03T06:37:05.103Z,5.40
2018-09-03T06:39:33.410Z,5.73
2018-09-03T06:42:01.729Z,5.73
2018-09-03T06:44:30.099Z,6.10
2018-09-03T06:46:58.424Z,6.37
2018-09-03T06:49:26.747Z,5.80
2018-09-03T06:51:55.072Z,5.23
2018-09-03T06:54:23.421Z,5.10
2018-09-03T06:56:51.740Z,5.47
2018-09-03T06:59:20.053Z,5.63
2018-09-03T07:01:48.385Z,5.10
2018-09-03T07:04:16.681Z,5.10
2018-09-03T07:06:45.051Z,4.47
2018-09-03T07:09:13.336Z,5.10
2018-09-03T07:11:41.694Z,5.17
2018-09-03T07:14:10.052Z,5.27
2018-09-03T07:16:38.341Z,4.93
2018-09-03T07:19:06.672Z,5.03
2018-09-03T07:21:34.993Z,5.17
2018-09-03T07:24:03.305Z,5.60
2018-09-03T07:26:31.673Z,4.80
2018-09-03T07:29:00.016Z,4.47
2018-09-03T07:31:28.333Z,4.47
2018-09-03T07:33:56.630Z,4.83
2018-09-03T07:36:24.943Z,4.27
2018-09-03T07:38:53.258Z,4.97
2018-09-03T07:41:21.577Z,4.20
2018-09-03T07:43:49.889Z,4.33
2018-09-03T07:46:18.211Z,4.63
2018-09-03T07:48:46.524Z,4.27
2018-09-03T07:51:14.836Z,4.60
2018-09-03T07:53:43.220Z,4.83
2018-09-03T07:56:11.516Z,4.50
2018-09-03T07:58:39.817Z,5.33
2018-09-03T08:01:08.173Z,5.00
2018-09-03T08:03:36.439Z,4.63
2018-09-03T08:06:04.772Z,4.37
2018-09-03T08:08:33.095Z,4.23
2018-09-03T08:11:01.416Z,3.60
2018-09-03T08:13:35.237Z,4.13
2018-09-03T08:16:03.645Z,4.07
2018-09-03T08:18:31.973Z,4.17
2018-09-03T08:21:00.302Z,4.00
2018-09-03T08:23:28.637Z,4.20
2018-09-03T08:25:56.972Z,4.40
2018-09-03T08:28:25.303Z,4.00
2018-09-03T08:30:53.608Z,4.80
2018-09-03T08:33:21.950Z,4.43
2018-09-03T08:35:50.309Z,4.20
2018-09-03T08:38:18.688Z,4.37
2018-09-03T08:40:47.036Z,4.20
2018-09-03T08:43:15.393Z,4.40
2018-09-03T08:45:43.710Z,3.83
2018-09-03T08:48:12.053Z,3.43
2018-09-03T08:50:40.557Z,3.37
2018-09-03T08:53:08.891Z,3.93
2018-09-03T08:55:37.192Z,3.47
2018-09-03T08:58:05.516Z,4.33
2018-09-03T09:00:33.909Z,3.73
2018-09-03T09:03:02.260Z,4.80
2018-09-03T09:05:30.574Z,3.90
2018-09-03T09:07:58.934Z,4.37
2018-09-03T09:10:27.262Z,4.13
2018-09-03T09:12:55.585Z,4.23
2018-09-03T09:15:23.889Z,4.00
2018-09-03T09:17:52.193Z,5.13
2018-09-03T09:20:20.492Z,4.80
2018-09-03T09:22:48.805Z,4.87
2018-09-03T09:25:17.116Z,4.30
2018-09-03T09:27:45.432Z,4.40
2018-09-03T09:30:13.737Z,4.40
2018-09-03T09:32:42.053Z,4.00
2018-09-03T09:35:11.397Z,3.90
2018-09-03T09:37:39.731Z,4.53
2018-09-03T09:40:08.070Z,4.30
2018-09-03T09:42:39.368Z,4.33
2018-09-03T09:45:07.729Z,4.10
2018-09-03T09:47:36.117Z,4.07
2018-09-03T09:50:04.516Z,3.60
2018-09-03T09:52:33.085Z,4.40
2018-09-03T09:55:01.543Z,4.43
2018-09-03T09:57:29.837Z,4.47
2018-09-03T09:59:58.172Z,4.60
2018-09-03T10:02:26.699Z,4.17
2018-09-03T10:04:55.206Z,4.07
2018-09-03T10:07:23.533Z,3.50
2018-09-03T10:09:51.865Z,3.60
2018-09-03T10:12:35.815Z,3.80
2018-09-03T10:15:04.164Z,3.60
2018-09-03T10:17:32.484Z,2.50
2018-09-03T10:20:00.859Z,2.10
2018-09-03T10:22:29.256Z,3.63
2018-09-03T10:24:57.585Z,2.33
2018-09-03T10:27:25.893Z,2.57
2018-09-03T10:29:54.226Z,3.20
2018-09-03T10:32:22.835Z,3.30
2018-09-03T10:34:51.313Z,2.73
2018-09-03T10:37:19.630Z,3.20
2018-09-03T10:39:47.988Z,3.20
2018-09-03T10:42:20.517Z,2.33
2018-09-03T10:44:48.878Z,3.20
2018-09-03T10:47:17.291Z,3.17
2018-09-03T10:49:45.535Z,3.50
2018-09-03T10:52:13.865Z,2.30
2018-09-03T10:54:42.192Z,2.77
2018-09-03T10:57:10.525Z,3.07
2018-09-03T10:59:38.957Z,2.97
2018-09-03T11:02:07.536Z,3.30
2018-09-03T11:04:35.908Z,2.53
2018-09-03T11:07:04.253Z,3.30
2018-09-03T11:09:32.560Z,3.10
2018-09-03T11:12:00.925Z,3.00
2018-09-03T11:14:29.257Z,2.80
2018-09-03T11:16:57.560Z,2.83
2018-09-03T11:19:28.282Z,3.03
2018-09-03T11:21:56.586Z,2.60
2018-09-03T11:24:24.895Z,2.57
2018-09-03T11:26:53.251Z,3.00
2018-09-03T11:29:21.512Z,2.60
2018-09-03T11:31:49.805Z,2.80
2018-09-03T11:34:18.113Z,2.73
2018-09-03T11:36:46.425Z,2.67
2018-09-03T11:39:14.724Z,2.17
2018-09-03T11:41:43.012Z,2.33
2018-09-03T11:44:11.312Z,2.60
2018-09-03T11:46:39.617Z,2.30
2018-09-03T11:49:07.913Z,2.60
2018-09-03T11:51:36.208Z,2.53
2018-09-03T11:54:04.521Z,2.57
2018-09-03T11:56:32.824Z,2.50
2018-09-03T11:59:01.121Z,3.20
2018-09-03T12:01:29.434Z,2.90
2018-09-03T12:03:57.752Z,2.97
2018-09-03T12:06:26.057Z,2.97
2018-09-03T12:08:54.368Z,2.70
2018-09-03T12:11:22.668Z,2.57
2018-09-03T12:13:50.965Z,3.00
2018-09-03T12:16:21.601Z,2.73
2018-09-03T12:18:49.897Z,2.77
2018-09-03T12:21:18.239Z,2.83
2018-09-03T12:23:46.508Z,2.80
2018-09-03T12:26:14.817Z,2.33
2018-09-03T12:28:43.123Z,3.10
2018-09-03T12:31:11.442Z,2.60
2018-09-03T12:33:39.757Z,3.20
2018-09-03T12:36:08.097Z,3.07
2018-09-03T12:38:36.410Z,3.13
2018-09-03T12:41:05.458Z,3.00
2018-09-03T12:43:33.840Z,3.27
2018-09-03T12:46:03.542Z,2.57
2018-09-03T12:48:32.311Z,2.90
2018-09-03T12:51:01.500Z,2.50
2018-09-03T12:53:30.400Z,2.80
2018-09-03T12:55:58.721Z,2.70
2018-09-03T12:58:27.102Z,2.87
2018-09-03T13:00:55.495Z,2.40
2018-09-03T13:03:23.752Z,2.77
2018-09-03T13:05:52.972Z,2.73
2018-09-03T13:08:21.367Z,3.20
2018-09-03T13:10:49.669Z,3.00
2018-09-03T13:13:17.989Z,3.20
2018-09-03T13:15:46.289Z,4.10
2018-09-03T13:18:14.584Z,3.17
2018-09-03T13:20:42.892Z,3.30
2018-09-03T13:23:11.265Z,4.13
2018-09-03T13:25:39.720Z,3.43
2018-09-03T13:28:08.019Z,3.17
2018-09-03T13:30:36.389Z,4.10
2018-09-03T13:33:04.697Z,4.20
2018-09-03T13:35:32.997Z,3.43
2018-09-03T13:38:01.316Z,3.00
2018-09-03T13:40:29.612Z,3.43
2018-09-03T13:42:57.937Z,3.43
2018-09-03T13:45:26.288Z,3.23
2018-09-03T13:47:54.709Z,3.27
2018-09-03T13:50:23.008Z,3.33
2018-09-03T13:52:51.328Z,3.30
2018-09-03T13:55:19.627Z,3.10
2018-09-03T13:57:47.924Z,3.33
2018-09-03T14:00:16.233Z,3.67
2018-09-03T14:02:44.524Z,3.20
2018-09-03T14:05:12.832Z,3.20
2018-09-03T14:07:41.257Z,3.40
2018-09-03T14:10:09.609Z,3.40
2018-09-03T14:12:37.906Z,3.70
2018-09-03T14:15:06.443Z,3.70
2018-09-03T14:17:34.769Z,3.50
2018-09-03T14:20:03.185Z,3.50
2018-09-03T14:22:31.461Z,3.20
2018-09-03T14:24:59.763Z,2.90
2018-09-03T14:27:28.065Z,3.07
2018-09-03T14:29:56.369Z,3.40
2018-09-03T14:32:24.693Z,3.20
2018-09-03T14:34:53.205Z,3.60
2018-09-03T14:37:21.513Z,3.80
2018-09-03T14:39:49.816Z,3.17
2018-09-03T14:42:18.137Z,3.80
2018-09-03T14:44:46.435Z,3.67
2018-09-03T14:47:14.739Z,3.60
2018-09-03T14:49:43.367Z,3.83
2018-09-03T14:52:11.757Z,3.33
2018-09-03T14:54:40.064Z,3.63
2018-09-03T14:57:08.377Z,3.60
2018-09-03T14:59:36.692Z,4.53
2018-09-03T15:02:05.045Z,3.97
2018-09-03T15:04:33.336Z,4.93
2018-09-03T15:07:01.649Z,4.10
2018-09-03T15:09:29.968Z,4.23
2018-09-03T15:11:58.273Z,4.53
2018-09-03T15:14:26.617Z,4.67
2018-09-03T15:16:54.973Z,4.83
2018-09-03T15:19:23.292Z,4.57
2018-09-03T15:21:51.588Z,4.10
2018-09-03T15:24:19.901Z,5.17
2018-09-03T15:26:48.200Z,5.00
2018-09-03T15:29:16.519Z,4.83
2018-09-03T15:31:44.813Z,4.80
2018-09-03T15:34:13.139Z,4.77
2018-09-03T15:36:41.483Z,5.30
2018-09-03T15:39:11.244Z,4.97
2018-09-03T15:41:39.541Z,5.30
2018-09-03T15:44:07.881Z,5.43
2018-09-03T15:46:36.212Z,5.60
2018-09-03T15:49:04.562Z,5.43
2018-09-03T15:51:32.849Z,5.83
2018-09-03T15:54:01.195Z,5.13
2018-09-03T15:56:29.498Z,5.60
2018-09-03T15:58:57.797Z,5.50
2018-09-03T16:01:26.107Z,5.50
2018-09-03T16:03:54.457Z,5.60
2018-09-03T16:06:22.753Z,5.73
2018-09-03T16:08:51.357Z,5.27
2018-09-03T16:11:19.731Z,6.00
2018-09-03T16:13:48.034Z,5.37
2018-09-03T16:16:16.393Z,5.70
2018-09-03T16:18:44.968Z,6.07
2018-09-03T16:21:13.281Z,5.47
2018-09-03T16:23:41.590Z,6.03
2018-09-03T16:26:09.890Z,5.80
2018-09-03T16:28:38.236Z,5.73
2018-09-03T16:31:06.532Z,5.83
2018-09-03T16:33:34.860Z,5.90
2018-09-03T16:36:03.247Z,6.27
2018-09-03T16:38:31.530Z,6.27
2018-09-03T16:40:59.864Z,6.20
2018-09-03T16:43:28.188Z,6.37
2018-09-03T16:45:56.517Z,6.40
2018-09-03T16:48:24.838Z,6.20
2018-09-03T16:50:53.160Z,5.90
2018-09-03T16:53:21.469Z,6.03
2018-09-03T16:55:49.801Z,6.20
2018-09-03T16:58:18.733Z,6.73
2018-09-03T17:00:47.131Z,6.60
2018-09-03T17:03:15.452Z,6.10
2018-09-03T17:05:43.772Z,6.73
2018-09-03T17:08:12.260Z,6.77
2018-09-03T17:10:40.744Z,6.40
2018-09-03T17:13:09.055Z,6.93
2018-09-03T17:15:37.416Z,6.83
2018-09-03T17:18:05.777Z,6.70
2018-09-03T17:20:34.197Z,7.20
2018-09-03T17:23:02.428Z,6.73
2018-09-03T17:25:30.772Z,8.03
2018-09-03T17:27:59.109Z,7.43
2018-09-03T17:30:27.441Z,7.17
2018-09-03T17:32:55.763Z,7.37
2018-09-03T17:35:24.089Z,7.70
2018-09-03T17:37:52.409Z,7.43
2018-09-03T17:40:20.730Z,7.30
2018-09-03T17:42:49.121Z,7.53
2018-09-03T17:45:17.457Z,7.63
2018-09-03T17:47:45.764Z,7.83
2018-09-03T17:50:14.068Z,7.43
2018-09-03T17:52:42.385Z,7.77
2018-09-03T17:55:11.305Z,8.80
2018-09-03T17:57:39.621Z,9.17
2018-09-03T18:00:08.001Z,7.87
2018-09-03T18:02:36.338Z,8.27
2018-09-03T18:05:04.676Z,8.47
2018-09-03T18:07:33.108Z,7.97
2018-09-03T18:10:01.421Z,9.03
2018-09-03T18:12:29.776Z,8.30
2018-09-03T18:14:58.150Z,8.43
2018-09-03T18:17:26.508Z,8.57
2018-09-03T18:19:54.836Z,8.93
2018-09-03T18:22:23.264Z,9.10
2018-09-03T18:24:51.645Z,9.50
2018-09-03T18:27:20.001Z,9.20
2018-09-03T18:29:48.311Z,9.23
2018-09-03T18:32:16.660Z,8.73
2018-09-03T18:34:44.991Z,9.10
2018-09-03T18:37:13.350Z,9.23
2018-09-03T18:39:41.686Z,8.20
2018-09-03T18:42:10.073Z,8.87
2018-09-03T18:44:38.412Z,8.77
2018-09-03T18:47:06.771Z,7.97
2018-09-03T18:49:35.077Z,9.60
2018-09-03T18:52:03.456Z,9.23
2018-09-03T18:54:31.772Z,9.43
2018-09-03T18:57:00.100Z,9.07
2018-09-03T18:59:28.421Z,9.10
2018-09-03T19:01:56.749Z,9.60
2018-09-03T19:04:25.076Z,8.97
2018-09-03T19:06:54.376Z,9.50
2018-09-03T19:09:22.683Z,9.60
2018-09-03T19:11:51.011Z,9.97
2018-09-03T19:14:19.321Z,10.77
2018-09-03T19:16:47.697Z,10.87
2018-09-03T19:19:16.065Z,10.27
2018-09-03T19:21:44.438Z,10.70
2018-09-03T19:24:12.750Z,11.07
2018-09-03T19:26:41.097Z,11.23
2018-09-03T19:29:09.580Z,10.90
2018-09-03T19:31:38.166Z,11.73
2018-09-03T19:34:06.593Z,11.30
2018-09-03T19:36:35.006Z,10.80
2018-09-03T19:39:03.625Z,11.50
2018-09-03T19:41:31.945Z,10.80
2018-09-03T19:44:00.277Z,11.53
2018-09-03T19:46:28.592Z,11.43
2018-09-03T19:48:56.932Z,11.63
2018-09-03T19:51:25.244Z,11.30
2018-09-03T19:53:53.581Z,11.37
2018-09-03T19:56:21.913Z,11.30
2018-09-03T19:58:50.218Z,10.27
2018-09-03T20:01:18.529Z,12.83
2018-09-03T20:03:46.838Z,15.37
2018-09-03T20:06:15.220Z,12.93
2018-09-03T20:08:43.543Z,10.67
2018-09-03T20:11:11.849Z,10.47
2018-09-03T20:13:40.165Z,10.70
2018-09-03T20:16:08.540Z,10.77
2018-09-03T20:18:36.861Z,10.97
2018-09-03T20:21:05.200Z,12.50
2018-09-03T20:23:33.641Z,12.67
2018-09-03T20:26:01.846Z,11.53
2018-09-03T20:28:30.242Z,12.07
2018-09-03T20:30:58.573Z,12.10
2018-09-03T20:33:26.865Z,13.10
2018-09-03T20:35:55.185Z,12.97
2018-09-03T20:38:23.532Z,12.57
2018-09-03T20:40:51.842Z,13.40
2018-09-03T20:43:20.205Z,12.97
2018-09-03T20:45:48.594Z,13.27
2018-09-03T20:48:16.956Z,13.27
2018-09-03T20:50:45.305Z,13.17
2018-09-03T20:53:13.616Z,13.43
2018-09-03T20:55:42.035Z,13.60
2018-09-03T20:58:10.387Z,13.23
2018-09-03T21:00:38.741Z,13.07
2018-09-03T21:03:07.044Z,13.60
2018-09-03T21:05:35.363Z,12.87
2018-09-03T21:08:03.696Z,12.87
2018-09-03T21:10:32.080Z,11.47
2018-09-03T21:13:00.421Z,12.80
2018-09-03T21:15:28.848Z,12.60
2018-09-03T21:17:57.216Z,12.17
2018-09-03T21:20:25.529Z,12.23
2018-09-03T21:22:53.874Z,12.17
2018-09-03T21:25:22.228Z,12.23
2018-09-03T21:27:50.637Z,11.40
2018-09-03T21:30:18.947Z,11.33
2018-09-03T21:32:47.304Z,11.20
2018-09-03T21:35:15.624Z,11.90
2018-09-03T21:37:43.980Z,11.90
2018-09-03T21:40:12.432Z,11.17
2018-09-03T21:42:41.324Z,11.87
2018-09-03T21:45:10.532Z,11.87
2018-09-03T21:47:38.925Z,12.13
2018-09-03T21:50:07.297Z,11.93
2018-09-03T21:52:35.769Z,12.70
2018-09-03T21:55:04.140Z,12.33
2018-09-03T21:57:32.459Z,11.87
2018-09-03T22:00:00.805Z,13.37
2018-09-03T22:02:29.120Z,13.73
2018-09-03T22:04:57.453Z,12.60
2018-09-03T22:07:25.770Z,12.23
2018-09-03T22:09:54.217Z,13.17
2018-09-03T22:12:22.528Z,13.33
2018-09-03T22:14:50.868Z,12.10
2018-09-03T22:17:19.208Z,11.93
2018-09-03T22:19:47.579Z,12.53
2018-09-03T22:22:15.949Z,12.60
2018-09-03T22:24:44.269Z,12.83
2018-09-03T22:27:12.569Z,11.87
2018-09-03T22:29:40.899Z,12.27
2018-09-03T22:32:09.201Z,11.63
2018-09-03T22:34:37.759Z,12.43
2018-09-03T22:37:06.069Z,11.90
2018-09-03T22:39:34.429Z,11.93
2018-09-03T22:42:02.733Z,12.23
2018-09-03T22:44:31.092Z,11.67
2018-09-03T22:46:59.508Z,11.70
2018-09-03T22:49:27.829Z,11.87
2018-09-03T22:51:56.129Z,12.13
2018-09-03T22:54:24.443Z,11.93
2018-09-03T22:56:52.798Z,11.87
2018-09-03T22:59:21.120Z,11.67
2018-09-03T23:01:49.424Z,12.03
2018-09-03T23:04:17.749Z,12.73
2018-09-03T23:06:46.053Z,12.10
2018-09-03T23:09:14.380Z,12.33
2018-09-03T23:11:42.741Z,12.47
2018-09-03T23:14:11.084Z,11.67
2018-09-03T23:16:39.420Z,12.90
2018-09-03T23:19:07.732Z,13.07
2018-09-03T23:21:36.089Z,12.63
2018-09-03T23:24:04.393Z,13.43
2018-09-03T23:26:32.732Z,12.73
2018-09-03T23:29:01.057Z,13.80
2018-09-03T23:31:29.390Z,14.03
2018-09-03T23:33:57.696Z,14.07
2018-09-03T23:36:26.026Z,14.40
2018-09-03T23:38:54.357Z,14.27
2018-09-03T23:41:22.698Z,14.70
2018-09-03T23:43:51.013Z,14.70
2018-09-03T23:46:19.346Z,14.77
2018-09-03T23:48:47.669Z,13.70
2018-09-03T23:51:15.992Z,14.23
2018-09-03T23:53:44.308Z,14.30
2018-09-03T23:56:12.657Z,15.00
2018-09-03T23:58:41.001Z,14.70
